Time;durP1;ratioP1;P1;durP2;ratioP2;P2;SDS_P1;SDS_P2;PMS_P1;PMS_P2;Temp;Humidity;BMP_temperature;BMP_pressure;BME280_temperature;BME280_humidity;BME280_pressure;Samples;Min_cycle;Max_cycle;Signal;HPM_P1;HPM_P2
2022/07/09 00:01:00;;;;;;;2.80;1.20;;;;;;;;;;5021263;28;20570;-82
2022/07/09 00:03:46;;;;;;;2.58;1.27;;;;;;;;;;5018747;28;20069;-81
2022/07/09 00:06:32;;;;;;;1.50;0.80;;;;;;;;;;5033214;28;20041;-82
2022/07/09 00:09:18;;;;;;;2.78;0.90;;;;;;;;;;5020191;28;20049;-81
2022/07/09 00:12:04;;;;;;;2.72;1.50;;;;;;;;;;5032856;28;20042;-81
2022/07/09 00:14:50;;;;;;;2.22;0.73;;;;;;;;;;5021028;28;20172;-81
2022/07/09 00:17:36;;;;;;;4.30;1.20;;;;;;;;;;5033811;28;20128;-82
2022/07/09 00:20:22;;;;;;;3.67;1.58;;;;;;;;;;5033110;28;20432;-82
2022/07/09 00:23:08;;;;;;;3.33;1.40;;;;;;;;;;5021357;28;20551;-82
2022/07/09 00:25:53;;;;;;;3.58;1.75;;;;;;;;;;5032496;28;20033;-81
2022/07/09 00:28:39;;;;;;;3.20;1.27;;;;;;;;;;5033071;28;20064;-81
2022/07/09 00:31:25;;;;;;;4.95;1.10;;;;;;;;;;5033601;28;20044;-82
2022/07/09 00:34:10;;;;;;;1.88;1.00;;;;;;;;;;5033447;28;20045;-82
2022/07/09 00:36:57;;;;;;;3.28;1.23;;;;;;;;;;5032756;28;20087;-81
2022/07/09 00:39:43;;;;;;;3.55;1.23;;;;;;;;;;5019904;28;20052;-81
2022/07/09 00:42:28;;;;;;;3.83;1.30;;;;;;;;;;5033493;28;20041;-81
2022/07/09 00:45:17;;;;;;;2.97;1.27;;;;;;;;;;5032759;28;20037;-81
2022/07/09 00:48:03;;;;;;;3.50;1.35;;;;;;;;;;5032515;28;20117;-81
2022/07/09 00:50:49;;;;;;;4.03;1.35;;;;;;;;;;5020756;28;20516;-81
2022/07/09 00:53:34;;;;;;;4.47;1.45;;;;;;;;;;5033092;28;20029;-81
2022/07/09 00:56:20;;;;;;;5.00;1.30;;;;;;;;;;5019625;28;20095;-81
2022/07/09 00:59:10;;;;;;;4.25;1.88;;;;;;;;;;5020623;28;20053;-81
2022/07/09 01:01:55;;;;;;;3.95;1.60;;;;;;;;;;5031872;28;20480;-82
2022/07/09 01:04:41;;;;;;;2.17;1.17;;;;;;;;;;5019529;28;20068;-82
2022/07/09 01:07:27;;;;;;;3.38;1.70;;;;;;;;;;5032225;28;20199;-81
2022/07/09 01:10:13;;;;;;;3.85;1.55;;;;;;;;;;5033112;28;20424;-82
2022/07/09 01:12:58;;;;;;;3.75;1.63;;;;;;;;;;5033650;28;20033;-81
2022/07/09 01:15:44;;;;;;;2.97;1.10;;;;;;;;;;5032595;28;20041;-81
2022/07/09 01:18:30;;;;;;;3.17;1.35;;;;;;;;;;5019183;28;20033;-81
2022/07/09 01:21:16;;;;;;;2.72;1.30;;;;;;;;;;5032219;28;20033;-82
2022/07/09 01:24:02;;;;;;;3.20;1.35;;;;;;;;;;5033363;28;20466;-81
2022/07/09 01:26:48;;;;;;;5.32;1.67;;;;;;;;;;5032151;28;20048;-81
2022/07/09 01:29:34;;;;;;;5.30;2.10;;;;;;;;;;5032610;28;20044;-81
2022/07/09 01:32:19;;;;;;;2.85;1.77;;;;;;;;;;5019059;28;20411;-81
2022/07/09 01:35:06;;;;;;;3.60;1.77;;;;;;;;;;5032476;28;20046;-81
2022/07/09 01:37:51;;;;;;;6.25;1.70;;;;;;;;;;5018523;28;20522;-81
2022/07/09 01:40:37;;;;;;;5.18;2.03;;;;;;;;;;5032280;28;20053;-81
2022/07/09 01:43:23;;;;;;;3.50;1.40;;;;;;;;;;5032412;28;20179;-81
2022/07/09 01:46:08;;;;;;;3.92;1.60;;;;;;;;;;5017465;28;20400;-81
2022/07/09 01:48:54;;;;;;;3.75;1.50;;;;;;;;;;5032232;28;20037;-82
2022/07/09 01:51:40;;;;;;;4.47;1.63;;;;;;;;;;5031150;28;20511;-82
2022/07/09 01:54:26;;;;;;;3.75;1.90;;;;;;;;;;5018655;28;20401;-81
2022/07/09 01:57:12;;;;;;;4.22;1.30;;;;;;;;;;5032169;28;20038;-81
2022/07/09 01:59:57;;;;;;;4.60;2.03;;;;;;;;;;5031114;28;20041;-81
2022/07/09 02:02:43;;;;;;;4.57;1.55;;;;;;;;;;5031610;28;20038;-81
2022/07/09 02:05:29;;;;;;;4.28;1.50;;;;;;;;;;5018114;28;20033;-82
2022/07/09 02:08:15;;;;;;;4.38;2.22;;;;;;;;;;5017943;28;20547;-81
2022/07/09 02:11:01;;;;;;;6.53;1.88;;;;;;;;;;5030776;28;20458;-81
2022/07/09 02:13:46;;;;;;;3.30;2.20;;;;;;;;;;5030859;28;20392;-82
2022/07/09 02:16:32;;;;;;;3.70;1.58;;;;;;;;;;5018019;28;20045;-81
2022/07/09 02:19:18;;;;;;;5.40;1.90;;;;;;;;;;5031642;28;20162;-81
2022/07/09 02:22:04;;;;;;;4.88;1.75;;;;;;;;;;5031206;28;20041;-81
2022/07/09 02:24:50;;;;;;;6.45;1.88;;;;;;;;;;5017043;28;20037;-81
2022/07/09 02:27:35;;;;;;;4.65;1.75;;;;;;;;;;5017763;28;20034;-81
2022/07/09 02:30:21;;;;;;;3.55;2.10;;;;;;;;;;5031268;28;20050;-82
2022/07/09 02:33:07;;;;;;;3.58;1.65;;;;;;;;;;5017336;28;20496;-81
2022/07/09 02:35:52;;;;;;;6.07;2.03;;;;;;;;;;5017112;28;20512;-81
2022/07/09 02:38:38;;;;;;;5.18;1.55;;;;;;;;;;5031433;28;20045;-81
2022/07/09 02:41:24;;;;;;;5.75;2.05;;;;;;;;;;5030775;28;20045;-81
2022/07/09 02:44:09;;;;;;;3.58;1.65;;;;;;;;;;5030989;28;20033;-82
2022/07/09 02:46:55;;;;;;;6.30;2.42;;;;;;;;;;5030183;28;20482;-81
2022/07/09 02:49:41;;;;;;;3.58;2.00;;;;;;;;;;5017658;28;20030;-81
2022/07/09 02:52:27;;;;;;;4.30;1.80;;;;;;;;;;5031280;28;20042;-81
2022/07/09 02:55:12;;;;;;;2.75;1.50;;;;;;;;;;5031729;28;20042;-82
2022/07/09 02:57:58;;;;;;;4.15;1.80;;;;;;;;;;5030306;28;20096;-81
2022/07/09 03:00:44;;;;;;;6.22;2.10;;;;;;;;;;5016616;28;20073;-81
2022/07/09 03:03:30;;;;;;;5.15;2.03;;;;;;;;;;5031618;28;20030;-82
2022/07/09 03:06:15;;;;;;;4.60;1.83;;;;;;;;;;5029889;28;20041;-81
2022/07/09 03:09:01;;;;;;;6.13;2.42;;;;;;;;;;5030604;28;20052;-81
2022/07/09 03:11:47;;;;;;;7.18;2.03;;;;;;;;;;5030866;28;20038;-82
2022/07/09 03:14:33;;;;;;;5.57;2.00;;;;;;;;;;5031138;28;20042;-81
2022/07/09 03:17:18;;;;;;;7.25;2.25;;;;;;;;;;5029738;28;20068;-81
2022/07/09 03:20:05;;;;;;;3.95;1.90;;;;;;;;;;5030488;28;20045;-81
2022/07/09 03:22:51;;;;;;;4.68;1.95;;;;;;;;;;5015552;28;20478;-81
2022/07/09 03:25:37;;;;;;;4.68;1.40;;;;;;;;;;5030258;28;20072;-81
2022/07/09 03:28:23;;;;;;;4.35;1.77;;;;;;;;;;5029727;28;20120;-82
2022/07/09 03:31:09;;;;;;;6.47;2.03;;;;;;;;;;5030764;28;20041;-81
2022/07/09 03:33:55;;;;;;;5.13;1.80;;;;;;;;;;5016692;28;20132;-81
2022/07/09 03:36:41;;;;;;;6.07;1.38;;;;;;;;;;5029913;28;20121;-81
2022/07/09 03:39:26;;;;;;;3.35;1.60;;;;;;;;;;5029314;28;20038;-81
2022/07/09 03:42:13;;;;;;;3.10;1.30;;;;;;;;;;5017352;28;20045;-80
2022/07/09 03:44:58;;;;;;;3.53;1.40;;;;;;;;;;5015336;28;20034;-81
2022/07/09 03:47:44;;;;;;;3.13;1.23;;;;;;;;;;5029482;28;20052;-81
2022/07/09 03:50:31;;;;;;;2.80;1.48;;;;;;;;;;5031223;28;20044;-81
2022/07/09 03:53:16;;;;;;;5.25;1.73;;;;;;;;;;5035144;28;20510;-81
2022/07/09 03:56:02;;;;;;;2.67;1.15;;;;;;;;;;5034046;28;20461;-82
2022/07/09 03:58:48;;;;;;;4.07;1.58;;;;;;;;;;5020981;28;20044;-81
2022/07/09 04:01:34;;;;;;;3.55;1.55;;;;;;;;;;5033818;28;20116;-82
2022/07/09 04:04:19;;;;;;;3.65;1.20;;;;;;;;;;5032801;28;20409;-81
2022/07/09 04:07:05;;;;;;;2.92;1.45;;;;;;;;;;5033191;28;20508;-81
2022/07/09 04:09:51;;;;;;;4.53;1.73;;;;;;;;;;5033755;28;20567;-81
2022/07/09 04:12:36;;;;;;;3.30;1.60;;;;;;;;;;5034228;28;20037;-81
2022/07/09 04:15:22;;;;;;;3.05;1.67;;;;;;;;;;5019757;28;20081;-81
2022/07/09 04:18:08;;;;;;;3.10;1.50;;;;;;;;;;5032729;28;20047;-81
2022/07/09 04:20:54;;;;;;;5.03;1.70;;;;;;;;;;5019512;28;20397;-81
2022/07/09 04:23:40;;;;;;;3.67;1.75;;;;;;;;;;5032692;28;20121;-81
2022/07/09 04:26:25;;;;;;;2.58;1.08;;;;;;;;;;5032896;28;20034;-81
2022/07/09 04:29:11;;;;;;;3.33;1.60;;;;;;;;;;5019885;28;20167;-81
2022/07/09 04:31:57;;;;;;;2.80;1.42;;;;;;;;;;5032413;28;20052;-81
2022/07/09 04:34:43;;;;;;;3.47;1.55;;;;;;;;;;5034262;28;20108;-82
2022/07/09 04:37:28;;;;;;;3.22;1.40;;;;;;;;;;5034434;28;20504;-81
2022/07/09 04:40:14;;;;;;;6.10;1.75;;;;;;;;;;5020044;28;20397;-81
2022/07/09 04:43:00;;;;;;;3.53;1.30;;;;;;;;;;5033041;28;20111;-81
2022/07/09 04:45:46;;;;;;;3.35;1.58;;;;;;;;;;5019760;28;20037;-81
2022/07/09 04:48:32;;;;;;;4.18;2.00;;;;;;;;;;5033997;28;20397;-81
2022/07/09 04:51:17;;;;;;;3.45;1.80;;;;;;;;;;5032784;28;20052;-81
2022/07/09 04:54:03;;;;;;;4.13;1.48;;;;;;;;;;5032534;28;20045;-81
2022/07/09 04:56:49;;;;;;;3.05;1.38;;;;;;;;;;5020041;28;20164;-81
2022/07/09 04:59:35;;;;;;;4.97;1.70;;;;;;;;;;5033049;28;20037;-81
2022/07/09 05:02:20;;;;;;;3.40;1.60;;;;;;;;;;5031219;28;20040;-81
2022/07/09 05:05:07;;;;;;;3.75;1.88;;;;;;;;;;5019316;28;20037;-81
2022/07/09 05:07:53;;;;;;;4.32;1.90;;;;;;;;;;5017476;28;20045;-81
2022/07/09 05:10:38;;;;;;;4.90;2.03;;;;;;;;;;5033056;28;20045;-81
2022/07/09 05:13:24;;;;;;;3.03;1.20;;;;;;;;;;5032960;28;20041;-81
2022/07/09 05:16:10;;;;;;;4.25;1.67;;;;;;;;;;5018280;28;20041;-81
2022/07/09 05:18:56;;;;;;;4.28;2.28;;;;;;;;;;5032759;28;20053;-81
2022/07/09 05:21:41;;;;;;;4.68;1.80;;;;;;;;;;5032925;28;20110;-81
2022/07/09 05:24:27;;;;;;;3.58;1.42;;;;;;;;;;5031505;28;20048;-81
2022/07/09 05:27:14;;;;;;;3.63;1.67;;;;;;;;;;5032131;28;20392;-81
2022/07/09 05:30:00;;;;;;;4.43;1.75;;;;;;;;;;5032287;28;20431;-81
2022/07/09 05:32:46;;;;;;;3.88;1.90;;;;;;;;;;5030655;28;20041;-81
2022/07/09 05:35:32;;;;;;;5.30;1.50;;;;;;;;;;5030873;28;20116;-81
2022/07/09 05:38:17;;;;;;;4.22;1.60;;;;;;;;;;5030685;28;20056;-81
2022/07/09 05:41:03;;;;;;;4.18;2.03;;;;;;;;;;5032033;28;20045;-81
2022/07/09 05:43:49;;;;;;;3.88;1.73;;;;;;;;;;5044469;28;20491;-81
2022/07/09 05:46:35;;;;;;;3.53;1.67;;;;;;;;;;5032852;28;20041;-81
2022/07/09 05:49:21;;;;;;;2.72;1.92;;;;;;;;;;5031689;28;20071;-81
2022/07/09 05:52:07;;;;;;;4.65;2.17;;;;;;;;;;5030840;28;20026;-81
2022/07/09 05:54:52;;;;;;;3.63;2.03;;;;;;;;;;5018412;28;20037;-81
2022/07/09 05:57:38;;;;;;;4.22;1.88;;;;;;;;;;5032023;28;20037;-81
2022/07/09 06:00:24;;;;;;;3.55;1.50;;;;;;;;;;5031867;28;20064;-81
2022/07/09 06:03:10;;;;;;;2.97;1.50;;;;;;;;;;5017804;28;20034;-81
2022/07/09 06:05:55;;;;;;;3.67;1.85;;;;;;;;;;5031109;28;20053;-81
2022/07/09 06:08:41;;;;;;;4.43;2.25;;;;;;;;;;5030926;28;20046;-81
2022/07/09 06:11:27;;;;;;;4.20;1.83;;;;;;;;;;5031941;28;20041;-81
2022/07/09 06:14:12;;;;;;;2.05;1.17;;;;;;;;;;5031004;28;20546;-81
2022/07/09 06:17:05;;;;;;;3.92;2.03;;;;;;;;;;5017981;28;20110;-81
2022/07/09 06:19:50;;;;;;;;;;;;;;;;;;5031803;28;20038;-81
2022/07/09 06:22:36;;;;;;;3.08;1.60;;;;;;;;;;5045722;28;20319;-81
2022/07/09 06:25:22;;;;;;;3.20;1.75;;;;;;;;;;5017923;28;20034;-81
2022/07/09 06:28:08;;;;;;;3.83;2.03;;;;;;;;;;5031058;28;20069;-81
2022/07/09 06:30:53;;;;;;;4.80;1.83;;;;;;;;;;5031338;28;20045;-81
2022/07/09 06:33:39;;;;;;;3.45;1.42;;;;;;;;;;5031481;28;20045;-81
2022/07/09 06:36:25;;;;;;;4.00;1.85;;;;;;;;;;5030043;28;20069;-81
2022/07/09 06:42:16;;;;;;;3.92;2.15;;;;;;;;;;5020999;28;20136;-81
2022/07/09 06:45:02;;;;;;;3.45;2.00;;;;;;;;;;5017565;28;20389;-81
2022/07/09 06:47:48;;;;;;;4.90;2.58;;;;;;;;;;5018080;28;20067;-81
2022/07/09 06:50:34;;;;;;;3.45;1.67;;;;;;;;;;5017884;28;20033;-81
2022/07/09 06:53:20;;;;;;;4.75;1.48;;;;;;;;;;5030552;28;20045;-81
2022/07/09 06:56:06;;;;;;;3.33;1.02;;;;;;;;;;5030690;28;20522;-81
2022/07/09 06:58:51;;;;;;;5.88;1.90;;;;;;;;;;5016280;28;20092;-81
2022/07/09 07:01:38;;;;;;;4.85;1.63;;;;;;;;;;5030417;28;20095;-81
2022/07/09 07:04:25;;;;;;;2.60;0.98;;;;;;;;;;5029729;28;20132;-81
2022/07/09 07:07:10;;;;;;;3.20;1.70;;;;;;;;;;5030310;28;20033;-81
2022/07/09 07:09:56;;;;;;;3.08;1.50;;;;;;;;;;5017059;28;20507;-81
2022/07/09 07:12:42;;;;;;;3.95;1.50;;;;;;;;;;5030493;28;20045;-81
2022/07/09 07:15:27;;;;;;;2.88;1.40;;;;;;;;;;5031299;28;20041;-81
2022/07/09 07:18:13;;;;;;;2.78;1.50;;;;;;;;;;5029722;28;20041;-81
2022/07/09 07:20:59;;;;;;;5.18;1.50;;;;;;;;;;5016834;28;20179;-81
2022/07/09 07:23:45;;;;;;;3.33;1.40;;;;;;;;;;5030438;28;20045;-81
2022/07/09 07:26:30;;;;;;;4.22;1.45;;;;;;;;;;5031261;28;20041;-81
2022/07/09 07:29:16;;;;;;;3.72;1.48;;;;;;;;;;5035789;28;20037;-81
2022/07/09 07:32:02;;;;;;;3.88;1.35;;;;;;;;;;5020968;28;20087;-81
2022/07/09 07:34:47;;;;;;;3.50;1.50;;;;;;;;;;5020882;28;20088;-82
2022/07/09 07:37:33;;;;;;;4.05;2.20;;;;;;;;;;5033481;28;20030;-81
2022/07/09 07:40:19;;;;;;;2.90;1.15;;;;;;;;;;5034734;28;20543;-81
2022/07/09 07:43:05;;;;;;;3.63;1.63;;;;;;;;;;5034713;28;20591;-82
2022/07/09 07:45:50;;;;;;;3.13;1.65;;;;;;;;;;5020515;28;20073;-82
2022/07/09 07:48:36;;;;;;;3.83;1.70;;;;;;;;;;5020739;28;20048;-82
2022/07/09 07:51:22;;;;;;;2.83;1.35;;;;;;;;;;5034618;28;20120;-82
2022/07/09 07:54:08;;;;;;;4.03;1.75;;;;;;;;;;5034404;28;20069;-81
2022/07/09 07:56:53;;;;;;;4.10;1.27;;;;;;;;;;5020184;28;20496;-82
2022/07/09 07:59:39;;;;;;;2.67;1.35;;;;;;;;;;5034047;28;20030;-81
2022/07/09 08:02:25;;;;;;;4.70;1.48;;;;;;;;;;5032741;28;20416;-82
2022/07/09 08:05:10;;;;;;;3.03;1.25;;;;;;;;;;5020680;28;20033;-81
2022/07/09 08:07:56;;;;;;;3.45;1.50;;;;;;;;;;5019581;28;20049;-82
2022/07/09 08:10:42;;;;;;;3.45;1.73;;;;;;;;;;5034068;28;20052;-81
2022/07/09 08:13:28;;;;;;;3.20;1.48;;;;;;;;;;5032668;28;20051;-82
2022/07/09 08:16:14;;;;;;;2.55;1.45;;;;;;;;;;5032626;28;20041;-82
2022/07/09 08:19:00;;;;;;;5.57;1.30;;;;;;;;;;5033204;28;20095;-81
2022/07/09 08:21:46;;;;;;;3.20;1.52;;;;;;;;;;5034509;28;20128;-81
2022/07/09 08:24:31;;;;;;;3.97;1.73;;;;;;;;;;5033364;28;20041;-82
2022/07/09 08:27:17;;;;;;;2.67;1.38;;;;;;;;;;5034381;28;20121;-82
2022/07/09 08:30:03;;;;;;;2.70;1.00;;;;;;;;;;5034243;28;20427;-81
2022/07/09 08:32:49;;;;;;;3.75;1.38;;;;;;;;;;5020150;28;20048;-82
2022/07/09 08:35:35;;;;;;;2.45;0.93;;;;;;;;;;5033865;28;20045;-82
2022/07/09 08:38:20;;;;;;;3.45;1.20;;;;;;;;;;5031972;28;20580;-82
2022/07/09 08:41:06;;;;;;;2.85;1.10;;;;;;;;;;5019337;28;20048;-82
2022/07/09 08:43:52;;;;;;;2.25;1.08;;;;;;;;;;5034207;28;20096;-82
2022/07/09 08:46:41;;;;;;;3.15;1.25;;;;;;;;;;5033589;28;20037;-81
2022/07/09 08:49:27;;;;;;;1.70;0.90;;;;;;;;;;5033895;28;20123;-82
2022/07/09 08:52:12;;;;;;;2.58;1.02;;;;;;;;;;5032723;28;20049;-82
2022/07/09 08:54:58;;;;;;;2.25;1.08;;;;;;;;;;5032644;28;20041;-82
2022/07/09 08:57:44;;;;;;;2.35;1.17;;;;;;;;;;5032726;28;20049;-82
2022/07/09 09:00:29;;;;;;;2.78;1.10;;;;;;;;;;5019001;28;20041;-81
2022/07/09 09:03:16;;;;;;;2.58;1.13;;;;;;;;;;5033022;28;20504;-82
2022/07/09 09:06:04;;;;;;;2.15;1.02;;;;;;;;;;5033503;28;20534;-81
2022/07/09 09:08:53;;;;;;;2.13;1.25;;;;;;;;;;5019191;28;20045;-82
2022/07/09 09:11:39;;;;;;;1.83;0.98;;;;;;;;;;5019210;28;20496;-82
2022/07/09 09:14:25;;;;;;;2.42;0.93;;;;;;;;;;5018417;28;20048;-82
2022/07/09 09:17:13;;;;;;;2.60;1.10;;;;;;;;;;5032975;28;20522;-82
2022/07/09 09:20:00;;;;;;;2.40;1.25;;;;;;;;;;5019705;28;20048;-82
2022/07/09 09:22:52;;;;;;;2.70;1.38;;;;;;;;;;5019679;28;20513;-82
2022/07/09 09:25:38;;;;;;;2.30;0.90;;;;;;;;;;5018133;28;20085;-82
2022/07/09 09:28:24;;;;;;;2.60;0.95;;;;;;;;;;5033585;28;20034;-82
2022/07/09 09:31:26;;;;;;;3.55;0.80;;;;;;;;;;5031377;28;20045;-82
2022/07/09 09:34:13;;;;;;;2.08;0.90;;;;;;;;;;5020165;28;20037;-82
2022/07/09 09:37:00;;;;;;;1.92;0.70;;;;;;;;;;5016828;28;20057;-82
2022/07/09 09:39:51;;;;;;;1.92;0.70;;;;;;;;;;5031457;28;20046;-82
2022/07/09 09:42:41;;;;;;;2.65;1.20;;;;;;;;;;5018978;28;20041;-82
2022/07/09 09:45:27;;;;;;;1.95;0.90;;;;;;;;;;5017852;28;20034;-82
2022/07/09 09:48:13;;;;;;;1.70;0.73;;;;;;;;;;5031579;28;20518;-82
2022/07/09 09:50:58;;;;;;;2.20;0.68;;;;;;;;;;5031244;28;20530;-82
2022/07/09 09:53:44;;;;;;;1.27;0.82;;;;;;;;;;5018011;28;20041;-82
2022/07/09 09:56:31;;;;;;;1.80;1.00;;;;;;;;;;5017934;28;20029;-82
2022/07/09 09:59:17;;;;;;;3.83;0.88;;;;;;;;;;5018384;28;20427;-82
2022/07/09 10:02:06;;;;;;;1.35;0.60;;;;;;;;;;5018597;28;20514;-82
2022/07/09 10:04:52;;;;;;;1.35;0.70;;;;;;;;;;5018716;28;20040;-82
2022/07/09 10:07:39;;;;;;;2.13;1.35;;;;;;;;;;5031567;28;20401;-82
2022/07/09 10:10:24;;;;;;;3.33;0.77;;;;;;;;;;5018184;28;20053;-82
2022/07/09 10:13:19;;;;;;;1.58;0.70;;;;;;;;;;5031049;28;20425;-81
2022/07/09 10:16:05;;;;;;;2.58;0.93;;;;;;;;;;5017472;28;20037;-82
2022/07/09 10:18:55;;;;;;;1.83;0.80;;;;;;;;;;5030656;28;20131;-82
2022/07/09 10:21:41;;;;;;;3.22;0.90;;;;;;;;;;5017126;28;20029;-82
2022/07/09 10:24:28;;;;;;;1.33;0.68;;;;;;;;;;5016875;28;20132;-82
2022/07/09 10:27:14;;;;;;;1.08;0.60;;;;;;;;;;5017800;28;20033;-82
2022/07/09 10:29:59;;;;;;;2.58;0.70;;;;;;;;;;5030783;28;20053;-82
2022/07/09 10:32:45;;;;;;;0.70;0.32;;;;;;;;;;5032299;28;20037;-82
2022/07/09 10:35:38;;;;;;;1.00;0.50;;;;;;;;;;5017092;28;20038;-81
2022/07/09 10:38:33;;;;;;;1.35;0.75;;;;;;;;;;5031729;28;20056;-82
2022/07/09 10:41:23;;;;;;;1.52;0.85;;;;;;;;;;5017420;28;20052;-82
2022/07/09 10:44:08;;;;;;;1.33;0.65;;;;;;;;;;5031862;28;20072;-82
2022/07/09 10:46:57;;;;;;;1.75;0.40;;;;;;;;;;5030851;28;20033;-82
2022/07/09 10:49:43;;;;;;;1.08;0.60;;;;;;;;;;5017584;28;20150;-82
2022/07/09 10:52:29;;;;;;;2.85;1.05;;;;;;;;;;5031360;28;20611;-83
2022/07/09 10:55:19;;;;;;;0.80;0.60;;;;;;;;;;5017595;28;20043;-82
2022/07/09 10:58:07;;;;;;;1.67;0.50;;;;;;;;;;5031188;28;20068;-82
2022/07/09 11:01:00;;;;;;;1.50;0.80;;;;;;;;;;5029331;28;20037;-82
2022/07/09 11:03:49;;;;;;;1.27;0.60;;;;;;;;;;5017730;28;20144;-82
2022/07/09 11:06:47;;;;;;;1.25;0.70;;;;;;;;;;5017323;28;20041;-83
2022/07/09 11:09:33;;;;;;;0.73;0.40;;;;;;;;;;5016740;28;20060;-82
2022/07/09 11:12:21;;;;;;;1.45;0.60;;;;;;;;;;5030291;28;20563;-82
2022/07/09 11:15:07;;;;;;;1.00;0.70;;;;;;;;;;5015769;28;20049;-82
2022/07/09 11:17:54;;;;;;;2.00;0.80;;;;;;;;;;5017196;28;20389;-82
2022/07/09 11:20:44;;;;;;;1.23;0.77;;;;;;;;;;5017442;28;20191;-82
2022/07/09 11:23:30;;;;;;;1.02;0.55;;;;;;;;;;5016762;28;20029;-82
2022/07/09 11:26:16;;;;;;;1.77;0.70;;;;;;;;;;5030100;28;20455;-82
2022/07/09 11:29:02;;;;;;;1.13;0.73;;;;;;;;;;5017206;28;20030;-83
2022/07/09 11:31:51;;;;;;;1.05;0.50;;;;;;;;;;5017703;28;20096;-82
2022/07/09 11:34:36;;;;;;;1.73;0.80;;;;;;;;;;5016159;28;20037;-82
2022/07/09 11:37:26;;;;;;;1.52;0.70;;;;;;;;;;5030434;28;20052;-82
2022/07/09 11:40:16;;;;;;;0.93;0.40;;;;;;;;;;5016107;28;20053;-82
2022/07/09 11:43:02;;;;;;;1.83;0.70;;;;;;;;;;5017313;28;20132;-83
2022/07/09 11:45:53;;;;;;;1.98;0.88;;;;;;;;;;5029892;28;20034;-82
2022/07/09 11:48:49;;;;;;;3.33;0.90;;;;;;;;;;5031002;28;20179;-81
2022/07/09 11:51:34;;;;;;;1.02;0.70;;;;;;;;;;5016765;28;20108;-83
2022/07/09 11:54:27;;;;;;;1.35;0.55;;;;;;;;;;5029021;28;20048;-82
2022/07/09 11:57:19;;;;;;;;;;;;;;;;;;5031262;28;20041;-82
2022/07/09 12:00:06;;;;;;;1.50;0.55;;;;;;;;;;5043308;28;19932;-82
2022/07/09 12:02:52;;;;;;;0.98;0.68;;;;;;;;;;5015309;28;20481;-82
2022/07/09 12:05:39;;;;;;;1.63;0.70;;;;;;;;;;5031101;28;20042;-82
2022/07/09 12:08:29;;;;;;;2.10;0.60;;;;;;;;;;5029074;28;20049;-82
2022/07/09 12:11:15;;;;;;;1.27;0.60;;;;;;;;;;5017579;28;20037;-82
2022/07/09 12:14:01;;;;;;;1.02;0.47;;;;;;;;;;5034228;28;20042;-82
2022/07/09 12:16:46;;;;;;;0.85;0.52;;;;;;;;;;5033390;28;20048;-82
2022/07/09 12:19:32;;;;;;;1.00;0.43;;;;;;;;;;5033271;28;20095;-82
2022/07/09 12:22:18;;;;;;;1.65;0.70;;;;;;;;;;5033701;28;20137;-82
2022/07/09 12:25:04;;;;;;;1.30;0.60;;;;;;;;;;5019006;28;20037;-82
2022/07/09 12:27:50;;;;;;;1.15;0.57;;;;;;;;;;5018316;28;20042;-82
2022/07/09 12:30:36;;;;;;;1.38;0.60;;;;;;;;;;5033135;28;20037;-82
2022/07/09 12:33:21;;;;;;;1.27;0.43;;;;;;;;;;5020455;28;20419;-83
2022/07/09 12:36:07;;;;;;;1.60;0.68;;;;;;;;;;5019372;28;20029;-83
2022/07/09 12:38:53;;;;;;;1.23;0.55;;;;;;;;;;5032680;28;20073;-82
2022/07/09 12:41:38;;;;;;;1.00;0.68;;;;;;;;;;5020918;28;20049;-82
2022/07/09 12:44:25;;;;;;;1.40;0.70;;;;;;;;;;5019190;28;20041;-83
2022/07/09 12:47:10;;;;;;;2.10;0.90;;;;;;;;;;5019664;28;20038;-82
2022/07/09 12:49:56;;;;;;;2.05;0.98;;;;;;;;;;5033500;28;20044;-83
2022/07/09 12:52:42;;;;;;;2.83;0.70;;;;;;;;;;5019448;28;20562;-83
2022/07/09 12:55:28;;;;;;;1.42;0.93;;;;;;;;;;5032797;28;20041;-83
2022/07/09 12:58:13;;;;;;;2.03;0.88;;;;;;;;;;5032232;28;20049;-82
2022/07/09 13:00:59;;;;;;;1.58;0.82;;;;;;;;;;5032644;28;20045;-83
2022/07/09 13:03:45;;;;;;;1.25;0.60;;;;;;;;;;5032594;28;20107;-83
2022/07/09 13:06:31;;;;;;;2.65;0.73;;;;;;;;;;5033292;28;20115;-84
2022/07/09 13:09:16;;;;;;;3.00;0.88;;;;;;;;;;5019030;28;20392;-83
2022/07/09 13:12:03;;;;;;;1.75;0.73;;;;;;;;;;5032298;28;20045;-83
2022/07/09 13:14:48;;;;;;;1.80;1.00;;;;;;;;;;5018902;28;20129;-83
2022/07/09 13:17:34;;;;;;;1.50;0.90;;;;;;;;;;5019099;28;20492;-83
2022/07/09 13:20:20;;;;;;;1.50;0.90;;;;;;;;;;5018408;28;20039;-83
2022/07/09 13:23:05;;;;;;;1.92;1.10;;;;;;;;;;5019284;28;20478;-83
2022/07/09 13:25:51;;;;;;;3.70;1.17;;;;;;;;;;5018211;28;20550;-83
2022/07/09 13:28:37;;;;;;;2.75;1.63;;;;;;;;;;5033306;28;20038;-82
2022/07/09 13:31:23;;;;;;;2.05;1.20;;;;;;;;;;5031925;28;20420;-83
2022/07/09 13:34:08;;;;;;;2.00;1.17;;;;;;;;;;5018318;28;20052;-83
2022/07/09 13:36:54;;;;;;;1.95;1.00;;;;;;;;;;5032075;28;20032;-82
2022/07/09 13:39:40;;;;;;;1.83;1.13;;;;;;;;;;5019564;28;20041;-82
2022/07/09 13:42:25;;;;;;;2.50;1.25;;;;;;;;;;5031825;28;20042;-82
2022/07/09 13:45:11;;;;;;;1.95;1.00;;;;;;;;;;5019313;28;20029;-83
2022/07/09 13:47:57;;;;;;;2.67;1.45;;;;;;;;;;5031463;28;20037;-83
2022/07/09 13:50:43;;;;;;;1.98;1.17;;;;;;;;;;5018847;28;20041;-83
2022/07/09 13:53:29;;;;;;;1.95;1.48;;;;;;;;;;5031032;28;20045;-82
2022/07/09 13:56:15;;;;;;;1.83;0.95;;;;;;;;;;5019693;28;20038;-83
2022/07/09 13:59:01;;;;;;;2.67;1.25;;;;;;;;;;5032241;28;20041;-84
2022/07/09 14:01:47;;;;;;;2.28;1.10;;;;;;;;;;5031408;28;20094;-83
2022/07/09 14:04:32;;;;;;;1.45;1.00;;;;;;;;;;5031794;28;20095;-83
2022/07/09 14:07:18;;;;;;;1.17;0.70;;;;;;;;;;5032262;28;20037;-83
2022/07/09 14:10:04;;;;;;;2.55;1.20;;;;;;;;;;5031870;28;20053;-83
2022/07/09 14:12:50;;;;;;;2.97;1.10;;;;;;;;;;5016483;28;20468;-83
2022/07/09 14:15:37;;;;;;;2.17;0.95;;;;;;;;;;5018877;28;20052;-82
2022/07/09 14:18:22;;;;;;;1.83;1.13;;;;;;;;;;5031352;28;20543;-83
2022/07/09 14:21:09;;;;;;;2.08;1.23;;;;;;;;;;5030647;28;20419;-83
2022/07/09 14:23:54;;;;;;;1.83;0.90;;;;;;;;;;5016486;28;20106;-83
2022/07/09 14:26:41;;;;;;;2.50;1.25;;;;;;;;;;5018689;28;20091;-83
2022/07/09 14:29:27;;;;;;;2.80;1.10;;;;;;;;;;5018179;28;20034;-83
2022/07/09 14:32:13;;;;;;;2.25;1.20;;;;;;;;;;5017742;28;20091;-83
2022/07/09 14:34:58;;;;;;;1.55;0.98;;;;;;;;;;5031237;28;20053;-83
2022/07/09 14:37:44;;;;;;;1.38;0.88;;;;;;;;;;5031156;28;20045;-83
2022/07/09 14:40:30;;;;;;;1.98;0.80;;;;;;;;;;5031286;28;20048;-83
2022/07/09 14:43:16;;;;;;;1.58;0.88;;;;;;;;;;5017844;28;20470;-83
2022/07/09 14:46:01;;;;;;;1.48;0.88;;;;;;;;;;5030712;28;20420;-83
2022/07/09 14:48:47;;;;;;;2.25;1.00;;;;;;;;;;5030674;28;20045;-84
2022/07/09 14:51:35;;;;;;;1.92;0.90;;;;;;;;;;5031407;28;20111;-83
2022/07/09 14:54:20;;;;;;;1.92;0.95;;;;;;;;;;5031314;28;20194;-83
2022/07/09 14:57:06;;;;;;;1.38;1.08;;;;;;;;;;5030703;28;20033;-83
2022/07/09 14:59:52;;;;;;;1.50;0.70;;;;;;;;;;5016773;28;20042;-83
2022/07/09 15:02:38;;;;;;;1.65;0.73;;;;;;;;;;5031004;28;20043;-83
2022/07/09 15:05:23;;;;;;;1.60;0.60;;;;;;;;;;5016479;28;20128;-83
2022/07/09 15:08:12;;;;;;;1.50;0.80;;;;;;;;;;5017047;28;20037;-84
2022/07/09 15:10:58;;;;;;;0.88;0.40;;;;;;;;;;5016753;28;20132;-84
2022/07/09 15:13:44;;;;;;;3.50;0.77;;;;;;;;;;5017388;28;20500;-84
2022/07/09 15:16:30;;;;;;;0.90;0.55;;;;;;;;;;5030395;28;20527;-84
2022/07/09 15:19:15;;;;;;;1.50;0.90;;;;;;;;;;5017294;28;20044;-83
2022/07/09 15:22:01;;;;;;;1.40;0.80;;;;;;;;;;5018495;28;20065;-83
2022/07/09 15:24:47;;;;;;;1.90;0.85;;;;;;;;;;5018030;28;20072;-84
2022/07/09 15:27:33;;;;;;;1.25;0.75;;;;;;;;;;5032470;28;20038;-83
2022/07/09 15:30:21;;;;;;;1.10;0.60;;;;;;;;;;5016560;28;20404;-82
2022/07/09 15:33:08;;;;;;;1.10;0.60;;;;;;;;;;5031632;28;20077;-83
2022/07/09 15:35:54;;;;;;;0.90;0.50;;;;;;;;;;5017101;28;20072;-83
2022/07/09 15:38:40;;;;;;;1.10;0.60;;;;;;;;;;5029811;28;20100;-83
2022/07/09 15:41:26;;;;;;;1.10;0.70;;;;;;;;;;5031118;28;20053;-83
2022/07/09 15:44:13;;;;;;;1.55;0.60;;;;;;;;;;5016514;28;20037;-83
2022/07/09 15:46:59;;;;;;;0.90;0.50;;;;;;;;;;5029781;28;20072;-83
2022/07/09 15:49:45;;;;;;;1.70;0.75;;;;;;;;;;5020700;28;20038;-83
2022/07/09 15:52:30;;;;;;;0.82;0.52;;;;;;;;;;5021462;28;20033;-83
2022/07/09 15:55:16;;;;;;;1.35;0.55;;;;;;;;;;5033965;28;20125;-83
2022/07/09 15:58:02;;;;;;;3.10;0.85;;;;;;;;;;5034476;28;20033;-83
2022/07/09 16:00:47;;;;;;;1.05;0.50;;;;;;;;;;5033423;28;20042;-83
2022/07/09 16:03:33;;;;;;;1.50;0.68;;;;;;;;;;5035166;28;20041;-83
2022/07/09 16:06:19;;;;;;;1.95;0.50;;;;;;;;;;5035213;28;20126;-83
2022/07/09 16:09:05;;;;;;;1.25;0.60;;;;;;;;;;5033389;28;20049;-83
2022/07/09 16:12:52;;;;;;;1.50;0.60;;;;;;;;;;5033647;28;20045;-82
2022/07/09 16:15:06;;;;;;;1.02;0.60;;;;;;;;;;5020828;28;20053;-82
2022/07/09 16:17:52;;;;;;;1.77;0.57;;;;;;;;;;5019212;28;20033;-82
2022/07/09 16:20:39;;;;;;;1.70;0.50;;;;;;;;;;5020815;28;20176;-82
2022/07/09 16:23:24;;;;;;;1.52;0.98;;;;;;;;;;5020612;28;20052;-83
2022/07/09 16:26:10;;;;;;;0.98;0.47;;;;;;;;;;5033348;28;20033;-82
2022/07/09 16:28:56;;;;;;;0.60;0.40;;;;;;;;;;5033335;28;20052;-82
2022/07/09 16:31:41;;;;;;;1.10;0.40;;;;;;;;;;5033116;28;20099;-83
2022/07/09 16:34:31;;;;;;;1.23;0.68;;;;;;;;;;5020026;28;20393;-83
2022/07/09 16:37:16;;;;;;;1.00;0.35;;;;;;;;;;5033064;28;20400;-83
2022/07/09 16:40:03;;;;;;;0.90;0.52;;;;;;;;;;5032503;28;20500;-83